Terminal Aerodrome Forecast
Issued by NWS Sterling, VA

Current Version | Previous Version | Graphics & Text | Print | Product List | Glossary On
Versions: 1 2 3 4 5 6 7 8 9 10 11 12 13 14 15 16 17 18 19 20
777
FTUS41 KLWX 191721
TAFIAD
TAF
KIAD 191721Z 1918/2024 VRB04KT P6SM FEW030
     FM200000 VRB03KT P6SM SKC
     FM202000 25006KT P6SM SCT060=

USA.gov is the U.S. government's official web portal to all federal, state and local government web resources and services.